Time;durP1;ratioP1;P1;durP2;ratioP2;P2;SDS_P1;SDS_P2;PMS_P1;PMS_P2;Temp;Humidity;BMP_temperature;BMP_pressure;BME280_temperature;BME280_humidity;BME280_pressure;Samples;Min_cycle;Max_cycle;Signal;HPM_P1;HPM_P2
2023/04/09 00:01:24;;;;;;;0.50;0.50;;;;;;;;;;5064940;28;20179;-84
2023/04/09 00:03:50;;;;;;;0.60;0.60;;;;;;;;;;5068664;28;20630;-82
2023/04/09 00:06:16;;;;;;;0.57;0.57;;;;;;;;;;5067985;28;20234;-84
2023/04/09 00:08:42;;;;;;;0.70;0.70;;;;;;;;;;5068536;28;20562;-83
2023/04/09 00:11:08;;;;;;;0.60;0.60;;;;;;;;;;5068486;28;20179;-82
2023/04/09 00:13:34;;;;;;;0.70;0.70;;;;;;;;;;5067556;28;20281;-83
2023/04/09 00:16:00;;;;;;;0.70;0.70;;;;;;;;;;5068702;28;20584;-82
2023/04/09 00:18:26;;;;;;;0.60;0.60;;;;;;;;;;5068350;28;20182;-83
2023/04/09 00:20:52;;;;;;;0.70;0.70;;;;;;;;;;5068244;28;20175;-81
2023/04/09 00:23:19;;;;;;;0.60;0.60;;;;;;;;;;5067442;28;20214;-82
2023/04/09 00:25:45;;;;;;;0.60;0.60;;;;;;;;;;5068934;28;20195;-83
2023/04/09 00:28:11;;;;;;;0.70;0.70;;;;;;;;;;5068846;28;20183;-83
2023/04/09 00:30:37;;;;;;;0.70;0.70;;;;;;;;;;5069547;28;20209;-82
2023/04/09 00:33:03;;;;;;;0.70;0.70;;;;;;;;;;5069264;28;20195;-83
2023/04/09 00:35:29;;;;;;;0.60;0.60;;;;;;;;;;5069953;28;20198;-82
2023/04/09 00:37:55;;;;;;;0.67;0.67;;;;;;;;;;5070847;28;20191;-83
2023/04/09 00:40:21;;;;;;;0.50;0.50;;;;;;;;;;5078443;28;20179;-81
2023/04/09 00:42:47;;;;;;;0.60;0.60;;;;;;;;;;5079188;28;20187;-82
2023/04/09 00:45:13;;;;;;;0.63;0.63;;;;;;;;;;5070428;28;20249;-82
2023/04/09 00:47:41;;;;;;;0.70;0.70;;;;;;;;;;5067246;28;20320;-83
2023/04/09 00:50:08;;;;;;;0.50;0.50;;;;;;;;;;5066561;28;20220;-84
2023/04/09 00:52:34;;;;;;;0.60;0.60;;;;;;;;;;5065938;28;20991;-83
2023/04/09 00:55:00;;;;;;;0.60;0.60;;;;;;;;;;5066165;28;20286;-83
2023/04/09 00:57:27;;;;;;;0.70;0.70;;;;;;;;;;5065887;28;20520;-83
2023/04/09 00:59:53;;;;;;;0.70;0.70;;;;;;;;;;5066372;28;20175;-84
2023/04/09 01:02:19;;;;;;;0.70;0.70;;;;;;;;;;5065309;28;20179;-83
2023/04/09 01:04:46;;;;;;;0.60;0.60;;;;;;;;;;5066054;28;20226;-83
2023/04/09 01:07:30;;;;;;;0.70;0.70;;;;;;;;;;5067238;28;20182;-83
2023/04/09 01:10:19;;;;;;;0.63;0.63;;;;;;;;;;5066294;28;20735;-83
2023/04/09 01:13:02;;;;;;;0.60;0.60;;;;;;;;;;5053462;28;20321;-83
2023/04/09 01:15:29;;;;;;;0.60;0.60;;;;;;;;;;5064742;28;20620;-82
2023/04/09 01:18:01;;;;;;;0.50;0.50;;;;;;;;;;5065554;28;20578;-83
2023/04/09 01:20:42;;;;;;;0.67;0.67;;;;;;;;;;5065463;28;20566;-83
2023/04/09 01:23:18;;;;;;;0.60;0.60;;;;;;;;;;5063735;28;20588;-84
2023/04/09 01:26:06;;;;;;;0.60;0.60;;;;;;;;;;5065667;28;20198;-83
2023/04/09 01:28:33;;;;;;;0.60;0.60;;;;;;;;;;5064592;28;20254;-83
2023/04/09 01:31:02;;;;;;;0.60;0.60;;;;;;;;;;5064258;28;20229;-82
2023/04/09 01:33:30;;;;;;;0.50;0.50;;;;;;;;;;5063558;28;20262;-82
2023/04/09 01:35:56;;;;;;;0.60;0.60;;;;;;;;;;5064190;28;20179;-84
2023/04/09 01:38:24;;;;;;;0.60;0.60;;;;;;;;;;5065390;28;20206;-83
2023/04/09 01:40:50;;;;;;;0.60;0.60;;;;;;;;;;5064546;28;20558;-82
2023/04/09 01:43:17;;;;;;;0.53;0.53;;;;;;;;;;5064776;28;20364;-82
2023/04/09 01:45:44;;;;;;;0.60;0.60;;;;;;;;;;5065458;28;20194;-82
2023/04/09 01:48:11;;;;;;;0.60;0.60;;;;;;;;;;5064814;28;20183;-82
2023/04/09 01:50:38;;;;;;;0.60;0.60;;;;;;;;;;5065427;28;20207;-83
2023/04/09 01:53:04;;;;;;;0.57;0.57;;;;;;;;;;5064845;28;20195;-84
2023/04/09 01:55:29;;;;;;;0.60;0.60;;;;;;;;;;5065150;28;20186;-83
2023/04/09 01:57:55;;;;;;;0.60;0.60;;;;;;;;;;5066828;28;20187;-83
2023/04/09 02:00:22;;;;;;;0.50;0.50;;;;;;;;;;5066042;28;20202;-83
2023/04/09 02:02:53;;;;;;;0.50;0.50;;;;;;;;;;5065138;28;20183;-83
2023/04/09 02:05:22;;;;;;;0.67;0.67;;;;;;;;;;5066741;28;20193;-83
2023/04/09 02:07:52;;;;;;;0.70;0.70;;;;;;;;;;5061617;28;20183;-85
2023/04/09 02:10:19;;;;;;;0.60;0.60;;;;;;;;;;5058580;28;20206;-85
2023/04/09 02:12:49;;;;;;;0.67;0.67;;;;;;;;;;5057714;28;20183;-85
2023/04/09 02:15:15;;;;;;;0.70;0.70;;;;;;;;;;5058603;28;20172;-84
2023/04/09 02:17:42;;;;;;;0.60;0.60;;;;;;;;;;5058809;28;20175;-85
2023/04/09 02:20:08;;;;;;;0.60;0.60;;;;;;;;;;5067093;28;20258;-85
2023/04/09 02:22:34;;;;;;;0.60;0.60;;;;;;;;;;5071123;28;20183;-86
2023/04/09 02:25:00;;;;;;;0.60;0.60;;;;;;;;;;5070557;28;20566;-85
2023/04/09 02:27:26;;;;;;;0.63;0.63;;;;;;;;;;5067288;28;20220;-85
2023/04/09 02:29:52;;;;;;;0.60;0.60;;;;;;;;;;5058360;28;20195;-86
2023/04/09 02:32:18;;;;;;;0.70;0.70;;;;;;;;;;5058247;28;20178;-85
2023/04/09 02:34:44;;;;;;;0.67;0.67;;;;;;;;;;5058347;28;20669;-84
2023/04/09 02:37:10;;;;;;;0.60;0.60;;;;;;;;;;5059026;28;20183;-85
2023/04/09 02:39:36;;;;;;;0.60;0.60;;;;;;;;;;5058044;28;20178;-85
2023/04/09 02:42:02;;;;;;;0.70;0.70;;;;;;;;;;5058284;28;20209;-86
2023/04/09 02:44:28;;;;;;;0.60;0.60;;;;;;;;;;5057684;28;20249;-85
2023/04/09 02:46:55;;;;;;;0.53;0.53;;;;;;;;;;5059189;28;20259;-84
2023/04/09 02:49:21;;;;;;;0.50;0.50;;;;;;;;;;5058635;28;20172;-85
2023/04/09 02:51:47;;;;;;;0.60;0.60;;;;;;;;;;5058811;28;20182;-85
2023/04/09 02:54:13;;;;;;;0.60;0.60;;;;;;;;;;5058384;28;20272;-85
2023/04/09 02:56:39;;;;;;;0.60;0.60;;;;;;;;;;5058628;28;20182;-85
2023/04/09 02:59:05;;;;;;;0.63;0.63;;;;;;;;;;5058698;28;20361;-84
2023/04/09 03:01:31;;;;;;;0.60;0.60;;;;;;;;;;5059063;28;20171;-86
2023/04/09 03:03:57;;;;;;;0.60;0.60;;;;;;;;;;5066600;28;20222;-86
2023/04/09 03:06:23;;;;;;;0.67;0.67;;;;;;;;;;5076848;28;20174;-86
2023/04/09 03:08:49;;;;;;;0.60;0.60;;;;;;;;;;5077045;28;20203;-87
2023/04/09 03:11:15;;;;;;;0.67;0.67;;;;;;;;;;5076886;28;20167;-85
2023/04/09 03:13:41;;;;;;;0.60;0.60;;;;;;;;;;5074034;28;20205;-85
2023/04/09 03:16:09;;;;;;;0.53;0.53;;;;;;;;;;5058224;28;20179;-85
2023/04/09 03:18:34;;;;;;;0.60;0.60;;;;;;;;;;5057773;28;20657;-84
2023/04/09 03:21:04;;;;;;;0.60;0.60;;;;;;;;;;5057816;28;20183;-85
2023/04/09 03:23:33;;;;;;;0.53;0.53;;;;;;;;;;5056379;28;20214;-84
2023/04/09 03:26:00;;;;;;;0.57;0.57;;;;;;;;;;5056983;28;20598;-85
2023/04/09 03:28:26;;;;;;;0.60;0.60;;;;;;;;;;5056803;28;20228;-84
2023/04/09 03:30:52;;;;;;;0.60;0.60;;;;;;;;;;5057300;28;20210;-86
2023/04/09 03:33:18;;;;;;;0.70;0.70;;;;;;;;;;5056896;28;20305;-86
2023/04/09 03:35:44;;;;;;;0.60;0.60;;;;;;;;;;5057028;28;20237;-83
2023/04/09 03:38:10;;;;;;;0.60;0.60;;;;;;;;;;5060414;28;20805;-85
2023/04/09 03:40:36;;;;;;;0.60;0.60;;;;;;;;;;5061113;28;20198;-84
2023/04/09 03:43:03;;;;;;;0.60;0.60;;;;;;;;;;5060429;28;20716;-85
2023/04/09 03:45:29;;;;;;;0.67;0.67;;;;;;;;;;5061448;28;20671;-86
2023/04/09 03:47:55;;;;;;;0.70;0.70;;;;;;;;;;5061260;28;20171;-83
2023/04/09 03:50:21;;;;;;;0.60;0.60;;;;;;;;;;5060458;28;20183;-85
2023/04/09 03:52:47;;;;;;;0.60;0.60;;;;;;;;;;5060529;28;20163;-85
2023/04/09 03:55:13;;;;;;;0.70;0.70;;;;;;;;;;5061074;28;20179;-86
2023/04/09 03:57:39;;;;;;;0.60;0.60;;;;;;;;;;5060951;28;20179;-86
2023/04/09 04:00:05;;;;;;;0.50;0.50;;;;;;;;;;5061120;28;20175;-84
2023/04/09 04:02:32;;;;;;;0.60;0.60;;;;;;;;;;5061085;28;20219;-84
2023/04/09 04:04:58;;;;;;;0.70;0.70;;;;;;;;;;5061506;28;20223;-84
2023/04/09 04:07:24;;;;;;;0.60;0.60;;;;;;;;;;5061428;28;20290;-85
2023/04/09 04:09:50;;;;;;;0.60;0.60;;;;;;;;;;5060381;28;20533;-85
2023/04/09 04:12:16;;;;;;;0.60;0.60;;;;;;;;;;5061351;28;20183;-85
2023/04/09 04:14:42;;;;;;;0.67;0.67;;;;;;;;;;5060867;28;20244;-86
2023/04/09 04:17:10;;;;;;;0.60;0.60;;;;;;;;;;5074246;28;20179;-83
2023/04/09 04:19:36;;;;;;;0.77;0.77;;;;;;;;;;5076305;28;20238;-86
2023/04/09 04:22:02;;;;;;;0.53;0.53;;;;;;;;;;5070094;28;20665;-84
2023/04/09 04:24:28;;;;;;;0.60;0.60;;;;;;;;;;5058664;28;20240;-83
2023/04/09 04:26:54;;;;;;;0.60;0.60;;;;;;;;;;5059009;28;20175;-83
2023/04/09 04:29:20;;;;;;;0.60;0.60;;;;;;;;;;5058671;28;20211;-84
2023/04/09 04:31:46;;;;;;;0.70;0.70;;;;;;;;;;5058823;28;20179;-84
2023/04/09 04:34:12;;;;;;;0.60;0.60;;;;;;;;;;5058594;28;20253;-83
2023/04/09 04:36:38;;;;;;;0.60;0.60;;;;;;;;;;5058621;28;20180;-83
2023/04/09 04:39:04;;;;;;;0.63;0.63;;;;;;;;;;5058819;28;20179;-83
2023/04/09 04:41:30;;;;;;;0.60;0.60;;;;;;;;;;5058987;28;20171;-83
2023/04/09 04:43:56;;;;;;;0.60;0.60;;;;;;;;;;5058490;28;20285;-84
2023/04/09 04:46:22;;;;;;;0.50;0.50;;;;;;;;;;5058130;28;20171;-85
2023/04/09 04:48:48;;;;;;;0.60;0.60;;;;;;;;;;5057943;28;20190;-87
2023/04/09 04:51:14;;;;;;;0.60;0.60;;;;;;;;;;5058016;28;20182;-84
2023/04/09 04:53:40;;;;;;;0.60;0.60;;;;;;;;;;5057541;28;20199;-83
2023/04/09 04:56:06;;;;;;;0.60;0.60;;;;;;;;;;5057358;28;20179;-83
2023/04/09 04:58:32;;;;;;;0.70;0.70;;;;;;;;;;5057386;28;20179;-83
2023/04/09 05:00:59;;;;;;;0.60;0.60;;;;;;;;;;5057837;28;20172;-83
2023/04/09 05:03:25;;;;;;;0.60;0.60;;;;;;;;;;5058141;28;20211;-83
2023/04/09 05:05:51;;;;;;;0.70;0.70;;;;;;;;;;5058372;28;20229;-83
2023/04/09 05:08:17;;;;;;;0.70;0.70;;;;;;;;;;5058095;28;20266;-84
2023/04/09 05:10:44;;;;;;;0.57;0.57;;;;;;;;;;5058261;28;20175;-85
2023/04/09 05:13:10;;;;;;;0.60;0.60;;;;;;;;;;5057308;28;20200;-84
2023/04/09 05:15:39;;;;;;;0.60;0.60;;;;;;;;;;5057684;28;20186;-84
2023/04/09 05:18:05;;;;;;;0.70;0.70;;;;;;;;;;5057697;28;20174;-84
2023/04/09 05:20:31;;;;;;;0.60;0.60;;;;;;;;;;5057876;28;20179;-84
2023/04/09 05:22:57;;;;;;;0.60;0.60;;;;;;;;;;5057066;28;20185;-83
2023/04/09 05:25:23;;;;;;;0.73;0.73;;;;;;;;;;5058240;28;20202;-84
2023/04/09 05:27:49;;;;;;;0.60;0.60;;;;;;;;;;5058175;28;20723;-83
2023/04/09 05:30:15;;;;;;;0.70;0.70;;;;;;;;;;5057001;28;20187;-85
2023/04/09 05:32:41;;;;;;;0.60;0.60;;;;;;;;;;5057178;28;20228;-85
2023/04/09 05:35:07;;;;;;;0.60;0.60;;;;;;;;;;5057949;28;20218;-84
2023/04/09 05:37:33;;;;;;;0.60;0.60;;;;;;;;;;5057222;28;20635;-83
2023/04/09 05:39:59;;;;;;;0.67;0.67;;;;;;;;;;5057852;28;20199;-85
2023/04/09 05:42:25;;;;;;;0.70;0.70;;;;;;;;;;5057450;28;20187;-85
2023/04/09 05:44:51;;;;;;;0.70;0.70;;;;;;;;;;5057377;28;20704;-84
2023/04/09 05:47:17;;;;;;;0.70;0.70;;;;;;;;;;5058406;28;20175;-84
2023/04/09 05:49:43;;;;;;;0.60;0.60;;;;;;;;;;5057928;28;20189;-83
2023/04/09 05:52:09;;;;;;;0.70;0.70;;;;;;;;;;5057647;28;20182;-87
2023/04/09 05:54:36;;;;;;;0.60;0.60;;;;;;;;;;5057747;28;20210;-85
2023/04/09 05:57:02;;;;;;;0.77;0.77;;;;;;;;;;5058184;28;20559;-85
2023/04/09 05:59:28;;;;;;;0.50;0.50;;;;;;;;;;5057900;28;20183;-84
2023/04/09 06:01:54;;;;;;;0.70;0.70;;;;;;;;;;5058620;28;20179;-85
2023/04/09 06:04:20;;;;;;;0.70;0.70;;;;;;;;;;5056347;28;20210;-85
2023/04/09 06:06:46;;;;;;;0.63;0.63;;;;;;;;;;5054645;28;20175;-83
2023/04/09 06:09:12;;;;;;;0.60;0.60;;;;;;;;;;5053618;28;20206;-84
2023/04/09 06:11:38;;;;;;;0.60;0.60;;;;;;;;;;5049096;28;20205;-85
2023/04/09 06:14:04;;;;;;;0.60;0.60;;;;;;;;;;5051140;28;20285;-85
2023/04/09 06:16:30;;;;;;;0.70;0.70;;;;;;;;;;5049280;28;20171;-85
2023/04/09 06:18:56;;;;;;;0.70;0.70;;;;;;;;;;5050492;28;20186;-85
2023/04/09 06:21:22;;;;;;;0.60;0.60;;;;;;;;;;5059005;28;20179;-85
2023/04/09 06:23:48;;;;;;;0.60;0.60;;;;;;;;;;5058839;28;20215;-85
2023/04/09 06:26:14;;;;;;;0.60;0.60;;;;;;;;;;5061202;28;20671;-86
2023/04/09 06:28:40;;;;;;;0.70;0.70;;;;;;;;;;5065502;28;20187;-86
2023/04/09 06:31:06;;;;;;;0.60;0.60;;;;;;;;;;5071784;28;20183;-87
2023/04/09 06:33:32;;;;;;;0.60;0.60;;;;;;;;;;5076902;28;20183;-86
2023/04/09 06:35:58;;;;;;;0.60;0.60;;;;;;;;;;5077119;28;20171;-85
2023/04/09 06:38:24;;;;;;;0.63;0.63;;;;;;;;;;5059560;28;20656;-86
2023/04/09 06:40:50;;;;;;;0.60;0.60;;;;;;;;;;5055311;28;20175;-85
2023/04/09 06:43:16;;;;;;;0.70;0.70;;;;;;;;;;5055436;28;20226;-84
2023/04/09 06:45:42;;;;;;;0.70;0.70;;;;;;;;;;5055844;28;20175;-84
2023/04/09 06:48:08;;;;;;;0.70;0.70;;;;;;;;;;5055109;28;20221;-86
2023/04/09 06:50:34;;;;;;;0.53;0.53;;;;;;;;;;5055240;28;20190;-84
2023/04/09 06:53:02;;;;;;;0.67;0.67;;;;;;;;;;5054656;28;20195;-84
2023/04/09 06:55:28;;;;;;;0.60;0.60;;;;;;;;;;5054629;28;20250;-85
2023/04/09 06:57:54;;;;;;;0.60;0.60;;;;;;;;;;5054682;28;20642;-84
2023/04/09 07:00:21;;;;;;;0.67;0.67;;;;;;;;;;5055079;28;20210;-82
2023/04/09 07:02:47;;;;;;;0.70;0.70;;;;;;;;;;5054546;28;20213;-84
2023/04/09 07:05:13;;;;;;;0.67;0.67;;;;;;;;;;5054766;28;20214;-84
2023/04/09 07:07:39;;;;;;;0.60;0.60;;;;;;;;;;5055573;28;20171;-85
2023/04/09 07:10:06;;;;;;;0.60;0.60;;;;;;;;;;5055184;28;20271;-85
2023/04/09 07:12:33;;;;;;;0.60;0.60;;;;;;;;;;5054392;28;20260;-83
2023/04/09 07:15:00;;;;;;;0.50;0.50;;;;;;;;;;5055731;28;20195;-84
2023/04/09 07:17:26;;;;;;;0.60;0.60;;;;;;;;;;5055827;28;20634;-85
2023/04/09 07:19:55;;;;;;;0.70;0.70;;;;;;;;;;5055555;28;20193;-85
2023/04/09 07:22:22;;;;;;;0.57;0.57;;;;;;;;;;5054143;28;20321;-85
2023/04/09 07:24:52;;;;;;;0.47;0.47;;;;;;;;;;5054727;28;20604;-86
2023/04/09 07:27:20;;;;;;;0.40;0.40;;;;;;;;;;5054251;28;20171;-84
2023/04/09 07:29:46;;;;;;;0.43;0.43;;;;;;;;;;5054130;28;20191;-82
2023/04/09 07:32:12;;;;;;;0.40;0.40;;;;;;;;;;5054798;28;20615;-84
2023/04/09 07:34:38;;;;;;;0.30;0.30;;;;;;;;;;5054426;28;20198;-85
2023/04/09 07:37:04;;;;;;;0.50;0.50;;;;;;;;;;5055704;28;20270;-83
2023/04/09 07:39:30;;;;;;;0.40;0.40;;;;;;;;;;5056288;28;20183;-85
2023/04/09 07:41:56;;;;;;;0.40;0.40;;;;;;;;;;5055631;28;20178;-87
2023/04/09 07:44:23;;;;;;;0.40;0.40;;;;;;;;;;5053964;28;20716;-88
2023/04/09 07:46:49;;;;;;;0.40;0.40;;;;;;;;;;5055068;28;20247;-86
2023/04/09 07:49:16;;;;;;;0.50;0.50;;;;;;;;;;5054856;28;20298;-85
2023/04/09 07:51:42;;;;;;;0.53;0.53;;;;;;;;;;5055155;28;20254;-85
2023/04/09 07:54:08;;;;;;;0.40;0.40;;;;;;;;;;5056373;28;20257;-86
2023/04/09 07:56:34;;;;;;;0.40;0.40;;;;;;;;;;5056270;28;20666;-85
2023/04/09 07:59:00;;;;;;;0.30;0.30;;;;;;;;;;5056813;28;20237;-85
2023/04/09 08:01:26;;;;;;;0.37;0.37;;;;;;;;;;5056553;28;20176;-85
2023/04/09 08:03:52;;;;;;;0.40;0.40;;;;;;;;;;5057326;28;20306;-85
2023/04/09 08:06:19;;;;;;;0.50;0.50;;;;;;;;;;5057485;28;20195;-86
2023/04/09 08:08:45;;;;;;;0.53;0.53;;;;;;;;;;5056569;28;20176;-86
2023/04/09 08:11:11;;;;;;;0.40;0.40;;;;;;;;;;5056228;28;20321;-87
2023/04/09 08:13:37;;;;;;;0.50;0.50;;;;;;;;;;5057035;28;20202;-86
2023/04/09 08:16:03;;;;;;;0.40;0.40;;;;;;;;;;5057068;28;20171;-86
2023/04/09 08:18:30;;;;;;;0.50;0.50;;;;;;;;;;5057442;28;20258;-84
2023/04/09 08:20:56;;;;;;;0.40;0.40;;;;;;;;;;5056945;28;20175;-88
2023/04/09 08:23:22;;;;;;;0.30;0.30;;;;;;;;;;5057205;28;20211;-87
2023/04/09 08:25:48;;;;;;;0.30;0.30;;;;;;;;;;5061221;28;20493;-86
2023/04/09 08:28:14;;;;;;;0.40;0.40;;;;;;;;;;5061956;28;20191;-86
2023/04/09 08:30:40;;;;;;;0.40;0.40;;;;;;;;;;5061818;28;20186;-86
2023/04/09 08:33:06;;;;;;;0.40;0.40;;;;;;;;;;5062394;28;20195;-86
2023/04/09 08:35:32;;;;;;;0.30;0.30;;;;;;;;;;5062057;28;20209;-86
2023/04/09 08:37:59;;;;;;;0.47;0.47;;;;;;;;;;5060896;28;20179;-87
2023/04/09 08:40:25;;;;;;;0.40;0.40;;;;;;;;;;5062520;28;20258;-87
2023/04/09 08:42:58;;;;;;;0.40;0.40;;;;;;;;;;5061442;28;20269;-87
2023/04/09 08:45:24;;;;;;;0.40;0.40;;;;;;;;;;5063222;28;20179;-87
2023/04/09 08:47:51;;;;;;;0.50;0.50;;;;;;;;;;5063128;28;20234;-86
2023/04/09 08:50:17;;;;;;;0.40;0.40;;;;;;;;;;5064542;28;20221;-90
2023/04/09 08:52:46;;;;;;;0.43;0.43;;;;;;;;;;5074750;28;20229;-87
2023/04/09 08:55:12;;;;;;;0.40;0.40;;;;;;;;;;5076319;28;20191;-91
2023/04/09 08:57:38;;;;;;;0.40;0.40;;;;;;;;;;5077332;28;20239;-87
2023/04/09 09:00:05;;;;;;;0.50;0.50;;;;;;;;;;5075856;28;20171;-87
2023/04/09 09:02:31;;;;;;;0.50;0.50;;;;;;;;;;5076884;28;20163;-87
2023/04/09 09:04:59;;;;;;;0.40;0.40;;;;;;;;;;5075636;28;20291;-87
2023/04/09 09:07:27;;;;;;;0.40;0.40;;;;;;;;;;5075531;28;20176;-86
2023/04/09 09:09:54;;;;;;;0.40;0.40;;;;;;;;;;5074863;28;20167;-88
2023/04/09 09:12:32;;;;;;;0.50;0.50;;;;;;;;;;5067401;28;20248;-88
2023/04/09 09:14:58;;;;;;;0.50;0.50;;;;;;;;;;5042132;28;20290;-86
2023/04/09 09:17:24;;;;;;;0.40;0.40;;;;;;;;;;5059724;28;20183;-85
2023/04/09 09:19:50;;;;;;;0.40;0.40;;;;;;;;;;5059383;28;20599;-86
2023/04/09 09:22:16;;;;;;;0.40;0.40;;;;;;;;;;5058885;28;20218;-85
2023/04/09 09:24:50;;;;;;;0.50;0.50;;;;;;;;;;5059346;28;20242;-86
2023/04/09 09:27:35;;;;;;;0.50;0.50;;;;;;;;;;5059259;28;20299;-86
2023/04/09 09:30:05;;;;;;;0.40;0.40;;;;;;;;;;5059622;28;20681;-86
2023/04/09 09:32:31;;;;;;;0.40;0.40;;;;;;;;;;5064576;28;20183;-87
2023/04/09 09:35:02;;;;;;;0.30;0.30;;;;;;;;;;5067100;28;20187;-89
2023/04/09 09:37:28;;;;;;;0.50;0.50;;;;;;;;;;5073768;28;20167;-90
2023/04/09 09:39:54;;;;;;;0.60;0.60;;;;;;;;;;5080290;28;20187;-88
2023/04/09 09:42:20;;;;;;;0.40;0.40;;;;;;;;;;5080532;28;20174;-89
2023/04/09 09:44:47;;;;;;;0.40;0.40;;;;;;;;;;5070028;28;20219;-87
2023/04/09 09:47:14;;;;;;;0.47;0.47;;;;;;;;;;5061331;28;20645;-86
2023/04/09 09:49:40;;;;;;;0.40;0.40;;;;;;;;;;5081696;28;20499;-85
2023/04/09 09:52:08;;;;;;;0.40;0.40;;;;;;;;;;5078845;28;20202;-83
2023/04/09 09:54:41;;;;;;;0.30;0.30;;;;;;;;;;5077298;28;20202;-85
2023/04/09 09:57:07;;;;;;;0.40;0.40;;;;;;;;;;5072290;28;20181;-82
2023/04/09 09:59:37;;;;;;;0.40;0.40;;;;;;;;;;5068139;28;20183;-84
2023/04/09 10:02:09;;;;;;;0.40;0.40;;;;;;;;;;5072075;28;20680;-84
2023/04/09 10:04:36;;;;;;;0.40;0.40;;;;;;;;;;5069871;28;20223;-84
2023/04/09 10:07:04;;;;;;;0.47;0.47;;;;;;;;;;5075344;28;20232;-84
2023/04/09 10:09:31;;;;;;;0.40;0.40;;;;;;;;;;5079011;28;20189;-85
2023/04/09 10:11:58;;;;;;;0.47;0.47;;;;;;;;;;5074205;28;20202;-84
2023/04/09 10:14:26;;;;;;;0.40;0.40;;;;;;;;;;5087285;28;20179;-83
2023/04/09 10:16:52;;;;;;;0.40;0.40;;;;;;;;;;5081150;28;20559;-85
2023/04/09 10:19:18;;;;;;;0.40;0.40;;;;;;;;;;5067135;28;20254;-84
2023/04/09 10:21:53;;;;;;;0.40;0.40;;;;;;;;;;5080834;28;20642;-86
2023/04/09 10:24:19;;;;;;;0.50;0.50;;;;;;;;;;5072783;28;20217;-85
2023/04/09 10:26:45;;;;;;;0.40;0.40;;;;;;;;;;5071442;28;20185;-84
2023/04/09 10:29:13;;;;;;;0.43;0.43;;;;;;;;;;5062876;28;20190;-86
2023/04/09 10:31:48;;;;;;;0.50;0.50;;;;;;;;;;5050778;28;20186;-86
2023/04/09 10:34:18;;;;;;;0.37;0.37;;;;;;;;;;5074819;28;20203;-85
2023/04/09 10:36:51;;;;;;;0.20;0.20;;;;;;;;;;5077525;28;20163;-87
2023/04/09 10:39:17;;;;;;;0.40;0.40;;;;;;;;;;5055659;28;20240;-86
2023/04/09 10:41:44;;;;;;;0.40;0.40;;;;;;;;;;5054737;28;20183;-86
2023/04/09 10:44:23;;;;;;;0.43;0.43;;;;;;;;;;5045205;28;20222;-85
2023/04/09 10:46:50;;;;;;;0.43;0.43;;;;;;;;;;5044944;28;20180;-85
2023/04/09 10:49:17;;;;;;;0.40;0.40;;;;;;;;;;5027637;28;20176;-85
2023/04/09 10:51:53;;;;;;;0.40;0.40;;;;;;;;;;5044874;28;20222;-84
2023/04/09 10:54:46;;;;;;;0.50;0.50;;;;;;;;;;5042633;28;20689;-85
2023/04/09 10:57:13;;;;;;;0.43;0.43;;;;;;;;;;5054820;28;20569;-84
2023/04/09 10:59:40;;;;;;;0.50;0.50;;;;;;;;;;5064903;28;20638;-85
2023/04/09 11:02:12;;;;;;;0.57;0.57;;;;;;;;;;5062171;28;20282;-86
2023/04/09 11:04:47;;;;;;;0.43;0.43;;;;;;;;;;5063406;28;20219;-85
2023/04/09 11:07:15;;;;;;;0.40;0.40;;;;;;;;;;5064640;28;20178;-87
2023/04/09 11:09:41;;;;;;;0.40;0.40;;;;;;;;;;5063880;28;20171;-86
2023/04/09 11:12:07;;;;;;;0.40;0.40;;;;;;;;;;5068131;28;20199;-84
2023/04/09 11:14:33;;;;;;;0.50;0.50;;;;;;;;;;5074326;28;20202;-84
2023/04/09 11:16:59;;;;;;;0.40;0.40;;;;;;;;;;5073072;28;20211;-84
2023/04/09 11:19:25;;;;;;;0.50;0.50;;;;;;;;;;5075663;28;20210;-85
2023/04/09 11:21:51;;;;;;;0.60;0.60;;;;;;;;;;5075597;28;20263;-85
2023/04/09 11:24:18;;;;;;;0.37;0.37;;;;;;;;;;5070167;28;20248;-85
2023/04/09 11:26:44;;;;;;;0.50;0.50;;;;;;;;;;5066567;28;20191;-85
2023/04/09 11:29:11;;;;;;;0.50;0.50;;;;;;;;;;5065169;28;20225;-86
2023/04/09 11:31:37;;;;;;;0.60;0.60;;;;;;;;;;5065844;28;20182;-86
2023/04/09 11:34:03;;;;;;;0.37;0.37;;;;;;;;;;5064113;28;20206;-84
2023/04/09 11:36:30;;;;;;;0.50;0.50;;;;;;;;;;5063995;28;20179;-85
2023/04/09 11:38:58;;;;;;;0.50;0.50;;;;;;;;;;5061495;28;20184;-86
2023/04/09 11:41:33;;;;;;;0.50;0.50;;;;;;;;;;5055581;28;20176;-85
2023/04/09 11:44:02;;;;;;;0.50;0.50;;;;;;;;;;5053747;28;20229;-85
2023/04/09 11:46:28;;;;;;;0.40;0.40;;;;;;;;;;5065835;28;20199;-86
2023/04/09 11:48:55;;;;;;;0.40;0.40;;;;;;;;;;5062516;28;20190;-84
2023/04/09 11:51:22;;;;;;;0.40;0.40;;;;;;;;;;5066244;28;20229;-84
2023/04/09 11:53:50;;;;;;;0.43;0.43;;;;;;;;;;5077877;28;20201;-84
2023/04/09 11:56:16;;;;;;;0.50;0.50;;;;;;;;;;5069243;28;20171;-85
2023/04/09 11:58:48;;;;;;;0.50;0.50;;;;;;;;;;5072453;28;20179;-87
2023/04/09 12:01:15;;;;;;;0.50;0.50;;;;;;;;;;5073890;28;20203;-85
2023/04/09 12:03:41;;;;;;;0.30;0.30;;;;;;;;;;5069666;28;20678;-85
2023/04/09 12:06:08;;;;;;;0.50;0.50;;;;;;;;;;5070772;28;20187;-83
2023/04/09 12:08:35;;;;;;;0.40;0.40;;;;;;;;;;5062228;28;20245;-82
2023/04/09 12:11:08;;;;;;;0.40;0.40;;;;;;;;;;5091211;28;20182;-83
2023/04/09 12:13:34;;;;;;;0.40;0.40;;;;;;;;;;5075714;28;20243;-84
2023/04/09 12:16:02;;;;;;;0.40;0.40;;;;;;;;;;5067878;28;20183;-84
2023/04/09 12:18:27;;;;;;;0.40;0.40;;;;;;;;;;5080272;28;20183;-84
2023/04/09 12:20:53;;;;;;;0.40;0.40;;;;;;;;;;5061531;28;20228;-85
2023/04/09 12:23:20;;;;;;;0.40;0.40;;;;;;;;;;5072291;28;20209;-85
2023/04/09 12:25:46;;;;;;;0.47;0.47;;;;;;;;;;5068165;28;20179;-84
2023/04/09 12:28:14;;;;;;;0.43;0.43;;;;;;;;;;5080477;28;20190;-84
2023/04/09 12:30:40;;;;;;;0.53;0.53;;;;;;;;;;5068825;28;20193;-85
2023/04/09 12:33:06;;;;;;;0.40;0.40;;;;;;;;;;5084258;28;20252;-85
2023/04/09 12:35:33;;;;;;;0.40;0.40;;;;;;;;;;5067585;28;20182;-85
2023/04/09 12:37:59;;;;;;;0.40;0.40;;;;;;;;;;5082108;28;20239;-84
2023/04/09 12:40:26;;;;;;;0.30;0.30;;;;;;;;;;5063977;28;20179;-85
2023/04/09 12:42:52;;;;;;;0.30;0.30;;;;;;;;;;5070352;28;20540;-84
2023/04/09 12:45:19;;;;;;;0.50;0.50;;;;;;;;;;5074797;28;20243;-85
2023/04/09 12:47:45;;;;;;;0.30;0.30;;;;;;;;;;5059953;28;20241;-85
2023/04/09 12:50:12;;;;;;;0.30;0.30;;;;;;;;;;5068393;28;20171;-85
2023/04/09 12:52:39;;;;;;;0.40;0.40;;;;;;;;;;5063231;28;20190;-84
2023/04/09 12:55:05;;;;;;;0.50;0.50;;;;;;;;;;5059050;28;20186;-86
2023/04/09 12:57:31;;;;;;;0.40;0.40;;;;;;;;;;5075081;28;20198;-86
2023/04/09 12:59:57;;;;;;;0.50;0.50;;;;;;;;;;5081185;28;20170;-85
2023/04/09 13:02:24;;;;;;;0.50;0.50;;;;;;;;;;5065262;28;20238;-85
2023/04/09 13:04:51;;;;;;;0.50;0.50;;;;;;;;;;5085759;28;20274;-85
2023/04/09 13:07:18;;;;;;;0.40;0.40;;;;;;;;;;5070537;28;20243;-82
2023/04/09 13:09:49;;;;;;;0.40;0.40;;;;;;;;;;5062024;28;20183;-84
2023/04/09 13:12:16;;;;;;;0.40;0.40;;;;;;;;;;5072597;28;20237;-84
2023/04/09 13:14:43;;;;;;;0.43;0.43;;;;;;;;;;5056718;28;20195;-83
2023/04/09 13:17:09;;;;;;;0.50;0.50;;;;;;;;;;5067452;28;20182;-85
2023/04/09 13:19:35;;;;;;;0.40;0.40;;;;;;;;;;5072866;28;20193;-84
2023/04/09 13:22:01;;;;;;;0.30;0.30;;;;;;;;;;5066269;28;20278;-85
2023/04/09 13:24:27;;;;;;;0.40;0.40;;;;;;;;;;5068828;28;20219;-83
2023/04/09 13:26:53;;;;;;;0.30;0.30;;;;;;;;;;5061494;28;20179;-83
2023/04/09 13:29:19;;;;;;;0.47;0.47;;;;;;;;;;5066006;28;20292;-83
2023/04/09 13:31:45;;;;;;;0.50;0.50;;;;;;;;;;5075154;28;20254;-84
2023/04/09 13:34:11;;;;;;;0.53;0.53;;;;;;;;;;5073965;28;20946;-84
2023/04/09 13:36:37;;;;;;;0.50;0.50;;;;;;;;;;5055572;28;20217;-84
2023/04/09 13:39:03;;;;;;;0.50;0.50;;;;;;;;;;5048593;28;20179;-85
2023/04/09 13:41:32;;;;;;;0.50;0.50;;;;;;;;;;5069819;28;20174;-85
2023/04/09 13:43:58;;;;;;;0.60;0.60;;;;;;;;;;5062975;28;20238;-86
2023/04/09 13:46:24;;;;;;;0.50;0.50;;;;;;;;;;5062378;28;20254;-85
2023/04/09 13:48:50;;;;;;;0.50;0.50;;;;;;;;;;5076234;28;20206;-86
2023/04/09 13:51:16;;;;;;;0.60;0.60;;;;;;;;;;5071952;28;20819;-86
2023/04/09 13:53:44;;;;;;;0.50;0.50;;;;;;;;;;5074550;28;20214;-84
2023/04/09 13:56:10;;;;;;;0.50;0.50;;;;;;;;;;5077601;28;20167;-83
2023/04/09 13:58:36;;;;;;;0.50;0.50;;;;;;;;;;5098022;28;20179;-84
2023/04/09 14:01:02;;;;;;;0.50;0.50;;;;;;;;;;5090073;28;20255;-86
2023/04/09 14:03:28;;;;;;;0.43;0.43;;;;;;;;;;5070455;28;20250;-84
2023/04/09 14:05:55;;;;;;;0.30;0.30;;;;;;;;;;5076386;28;20175;-86
2023/04/09 14:08:20;;;;;;;0.43;0.43;;;;;;;;;;5064631;28;20179;-86
2023/04/09 14:10:46;;;;;;;0.60;0.60;;;;;;;;;;5063023;28;20270;-85
2023/04/09 14:13:12;;;;;;;0.40;0.40;;;;;;;;;;5073325;28;20194;-85
2023/04/09 14:15:39;;;;;;;0.50;0.50;;;;;;;;;;5084485;28;20575;-85
2023/04/09 14:18:05;;;;;;;0.40;0.40;;;;;;;;;;5061081;28;20183;-85
2023/04/09 14:20:31;;;;;;;0.50;0.50;;;;;;;;;;5080149;28;20188;-87
2023/04/09 14:22:57;;;;;;;0.50;0.50;;;;;;;;;;5072576;28;20286;-84
2023/04/09 14:25:23;;;;;;;0.40;0.40;;;;;;;;;;5076690;28;20301;-85
2023/04/09 14:27:49;;;;;;;0.47;0.47;;;;;;;;;;5081629;28;20223;-86
2023/04/09 14:30:17;;;;;;;0.47;0.47;;;;;;;;;;5077843;28;20190;-84
2023/04/09 14:32:43;;;;;;;0.50;0.50;;;;;;;;;;5091054;28;20148;-85
2023/04/09 14:35:09;;;;;;;0.47;0.47;;;;;;;;;;5084009;28;20159;-84
2023/04/09 14:37:36;;;;;;;0.40;0.40;;;;;;;;;;5074757;28;20217;-86
2023/04/09 14:40:02;;;;;;;0.57;0.57;;;;;;;;;;5074223;28;20261;-85
2023/04/09 14:42:28;;;;;;;0.50;0.50;;;;;;;;;;5062447;28;20253;-84